Airfield :
LOGIN :

Register | Disclaimer

   EN    FR    IT 

 










Legend :    VFR   Marginal VFR   IFR   Intensive IFR   Very Intensive IFR
Visi :
Ceiling :
>= 8 km
>= 3000ft
5 to 8 km
1000 to 3000 ft
1500m to 5 km
500 to 1000 ft
800 to 1500m
200 to 500 ft
< 800m
< 200 ft
Symbols :   Thunderstorms  Fog  Heavy snow  Heavy precipitations  Wind > 20 kt
SIGMETs :     Misc.  Thunderstorms  Icing  Turbulence  Mountain Waves  Volcanic Ashes







- Airport Elevation : 162 ft
- IATA code : BOD
- Download approach charts


LFBD - Bordeaux / Merignac

CURRENT METAR :
  • 231330Z AUTO 20009KT 170V230 9999 -RA SCT025/// BKN045/// BKN054/// ///TCU 09/04 Q1009 BECMG NSC

EXPIRED METARs :
  • 231300Z AUTO 24010KT 190V270 9999 FEW027/// SCT074/// BKN086/// ///TCU 10/05 Q1009 BECMG NSC
  • 231230Z AUTO 22009KT 9999 FEW019/// BKN068/// BKN090/// ///TCU 09/04 Q1010 BECMG NSC
  • 231200Z AUTO 21012KT 190V250 9999 BKN022 BKN033 BKN058 09/04 Q1009 TEMPO 24015G25KT 4000 -SHRA SCT015TCU BKN030
  • 231130Z AUTO 21011KT 9999 BKN015/// BKN021/// BKN038/// ///TCU 08/04 Q1009 TEMPO 24015G25KT 4000 -SHRA BECMG NSC
  • 231100Z AUTO 21008KT 160V240 9999 SCT022/// SCT036/// BKN056/// ///TCU 08/04 Q1009 TEMPO 20015G25KT 4000 -SHRA SCT018CB SCT025TCU

TAF TAF LFBD
Valid from the 23 at 12:00 until the 24 at 18:00 UTC


231100Z 2312/2418 24015KT 9999 SCT015 BKN040
TEMPO 2312/2313 24015G25KT 4000 -SHRA SCT015TCU BKN030
BECMG 2313/2315 CAVOK
TEMPO 2400/2406 2000 BR NSC TX14/2415Z TN02/2406Z
ATIS : +33 5 57 92 81 04
No reported NOTAMs for that airfield.



MET'MAP, your aeronautical weather chart ! - Copyright ORBIFLY December 2007 - Disclaimer

ORBIFLY MET'MAP TEAM :

Programming & Development : Alexandra Zaïnal
Concept & Development : Baudouin d'Aumeries
Co-Development & Prog : Marc-Olivier Méhu
Technical & hardware support : Manuel Goepfert

Contact : metmap@orbifly.com




SOURCES & CREDITS :

   NOAA